NRT weather

Narita International Airport
Tokyo, Chiba Prefecture, Japan

Public forecast

Using degrees Celsius for public forecast. Weather courtesy of forecast.io.

METAR (pilot weather report)

Retrieved 2019/04/23 09:30 UTC (16 minutes ago):

RJAA 230930Z 15007KT 9999 FEW030 BKN/// 16/13 Q1020 NOSIG

TAF (pilot weather forecast)

Retrieved 2019/04/23 06:09 UTC (4 hours ago):

TAF TAF RJAA 230505Z 2306/2412 14012KT 9999 FEW030 SCT040